createdAt,value
2023-04-09T00:02:22.424Z,31.50
2023-04-09T00:04:52.915Z,43.40
2023-04-09T00:07:23.508Z,35.30
2023-04-09T00:09:53.979Z,29.30
2023-04-09T00:12:24.480Z,33.00
2023-04-09T00:14:55.692Z,31.00
2023-04-09T00:17:26.201Z,32.10
2023-04-09T00:19:56.759Z,32.00
2023-04-09T00:22:27.287Z,31.80
2023-04-09T00:24:58.409Z,29.60
2023-04-09T00:27:28.850Z,32.50
2023-04-09T00:29:59.270Z,31.10
2023-04-09T00:32:29.751Z,34.90
2023-04-09T00:35:00.316Z,32.80
2023-04-09T00:37:30.831Z,34.10
2023-04-09T00:40:01.354Z,34.60
2023-04-09T00:42:35.213Z,32.90
2023-04-09T00:45:06.508Z,33.30
2023-04-09T00:47:37.364Z,29.30
2023-04-09T00:50:09.224Z,32.40
2023-04-09T00:52:40.573Z,31.70
2023-04-09T00:55:13.686Z,33.20
2023-04-09T00:57:44.140Z,33.10
2023-04-09T01:00:16.658Z,32.90
2023-04-09T01:02:47.488Z,33.10
2023-04-09T01:05:18.281Z,33.70
2023-04-09T01:08:02.832Z,32.70
2023-04-09T01:10:40.555Z,34.60
2023-04-09T01:13:17.089Z,32.50
2023-04-09T01:15:53.303Z,32.20
2023-04-09T01:18:30.349Z,34.60
2023-04-09T01:21:06.204Z,35.10
2023-04-09T01:23:48.017Z,37.00
2023-04-09T01:26:33.464Z,40.00
2023-04-09T01:29:06.975Z,34.30
2023-04-09T01:31:43.112Z,36.80
2023-04-09T01:34:15.711Z,35.90
2023-04-09T01:36:51.366Z,34.40
2023-04-09T01:39:22.291Z,36.50
2023-04-09T01:41:53.960Z,35.40
2023-04-09T01:44:27.328Z,37.80
2023-04-09T01:46:59.223Z,37.40
2023-04-09T01:49:30.872Z,38.00
2023-04-09T01:52:01.694Z,35.50
2023-04-09T01:54:33.052Z,35.90
2023-04-09T01:57:03.503Z,34.40
2023-04-09T01:59:33.991Z,37.10
2023-04-09T02:02:11.972Z,37.70
2023-04-09T02:04:47.306Z,34.40
2023-04-09T02:07:27.589Z,35.60
2023-04-09T02:10:00.509Z,35.00
2023-04-09T02:12:34.771Z,36.60
2023-04-09T02:15:07.335Z,36.50
2023-04-09T02:17:37.991Z,38.20
2023-04-09T02:20:11.526Z,37.00
2023-04-09T02:22:42.725Z,34.80
2023-04-09T02:25:13.446Z,39.30
2023-04-09T02:27:43.881Z,39.90
2023-04-09T02:30:14.821Z,36.20
2023-04-09T02:32:45.446Z,35.90
2023-04-09T02:35:16.098Z,39.50
2023-04-09T02:37:46.644Z,37.20
2023-04-09T02:40:17.226Z,40.20
2023-04-09T02:42:47.680Z,35.30
2023-04-09T02:45:18.895Z,38.70
2023-04-09T02:47:49.511Z,41.10
2023-04-09T02:50:20.660Z,40.60
2023-04-09T02:52:52.909Z,39.70
2023-04-09T02:55:24.031Z,40.50
2023-04-09T02:57:54.504Z,42.40
2023-04-09T03:00:25.067Z,41.60
2023-04-09T03:02:56.394Z,39.10
2023-04-09T03:05:27.841Z,39.90
2023-04-09T03:07:58.657Z,39.30
2023-04-09T03:10:29.525Z,40.60
2023-04-09T03:13:00.987Z,39.90
2023-04-09T03:15:31.906Z,38.00
2023-04-09T03:18:02.893Z,38.60
2023-04-09T03:20:35.224Z,43.10
2023-04-09T03:23:06.769Z,39.20
2023-04-09T03:25:42.329Z,38.80
2023-04-09T03:28:18.270Z,41.30
2023-04-09T03:30:52.005Z,40.40
2023-04-09T03:33:22.953Z,40.20
2023-04-09T03:36:01.795Z,38.70
2023-04-09T03:38:43.131Z,42.50
2023-04-09T03:41:24.406Z,39.00
2023-04-09T03:43:55.688Z,38.20
2023-04-09T03:46:28.431Z,38.60
2023-04-09T03:49:00.771Z,41.20
2023-04-09T03:51:39.634Z,39.60
2023-04-09T03:54:10.583Z,41.50
2023-04-09T03:56:41.532Z,43.30
2023-04-09T03:59:14.822Z,38.30
2023-04-09T04:01:48.275Z,37.50
2023-04-09T04:04:21.988Z,41.00
2023-04-09T04:06:58.576Z,38.40
2023-04-09T04:09:52.868Z,41.00
2023-04-09T04:12:23.803Z,39.20
2023-04-09T04:15:15.119Z,41.00
2023-04-09T04:17:49.815Z,44.40
2023-04-09T04:20:30.207Z,39.70
2023-04-09T04:23:05.663Z,40.60
2023-04-09T04:25:37.107Z,38.00
2023-04-09T04:28:08.450Z,39.30
2023-04-09T04:30:45.805Z,40.50
2023-04-09T04:33:17.709Z,41.40
2023-04-09T04:35:53.500Z,39.30
2023-04-09T04:38:50.923Z,38.90
2023-04-09T04:41:31.502Z,40.80
2023-04-09T04:44:22.599Z,38.40
2023-04-09T04:46:56.616Z,38.50
2023-04-09T04:49:27.549Z,38.00
2023-04-09T04:51:58.975Z,39.30
2023-04-09T04:54:29.913Z,39.30
2023-04-09T04:57:01.282Z,38.00
2023-04-09T04:59:50.371Z,39.30
2023-04-09T05:02:21.832Z,39.50
2023-04-09T05:05:13.055Z,36.40
2023-04-09T05:07:49.048Z,43.90
2023-04-09T05:10:20.950Z,39.00
2023-04-09T05:12:51.816Z,42.40
2023-04-09T05:15:28.760Z,39.80
2023-04-09T05:17:59.747Z,45.60
2023-04-09T05:20:31.672Z,41.40
2023-04-09T05:23:10.407Z,42.00
2023-04-09T05:25:45.211Z,43.10
2023-04-09T05:28:22.469Z,41.20
2023-04-09T05:30:56.805Z,38.30
2023-04-09T05:33:27.560Z,40.80
2023-04-09T05:35:58.181Z,38.40
2023-04-09T05:38:28.907Z,41.50
2023-04-09T05:41:01.191Z,39.30
2023-04-09T05:43:31.933Z,43.40
2023-04-09T05:46:02.434Z,40.50
2023-04-09T05:48:32.926Z,41.50
2023-04-09T05:51:05.055Z,40.80
2023-04-09T05:53:37.214Z,45.10
2023-04-09T05:56:16.591Z,54.30
2023-04-09T05:58:54.324Z,46.30
2023-04-09T06:01:24.978Z,42.10
2023-04-09T06:03:58.071Z,42.00
2023-04-09T06:06:29.234Z,41.60
2023-04-09T06:08:59.962Z,47.00
2023-04-09T06:11:30.785Z,40.80
2023-04-09T06:14:01.389Z,42.20
2023-04-09T06:16:31.898Z,43.10
2023-04-09T06:19:02.359Z,54.40
2023-04-09T06:21:33.712Z,44.40
2023-04-09T06:24:04.173Z,44.50
2023-04-09T06:26:34.615Z,41.20
2023-04-09T06:29:05.100Z,42.40
2023-04-09T06:31:35.739Z,44.40
2023-04-09T06:34:06.397Z,44.50
2023-04-09T06:36:37.757Z,39.10
2023-04-09T06:39:08.377Z,36.80
2023-04-09T06:41:38.873Z,37.50
2023-04-09T06:44:16.367Z,40.10
2023-04-09T06:46:46.865Z,39.70
2023-04-09T06:49:17.400Z,43.40
2023-04-09T06:51:47.849Z,41.20
2023-04-09T06:54:18.357Z,39.10
2023-04-09T06:56:48.786Z,45.30
2023-04-09T06:59:19.255Z,43.00
2023-04-09T07:01:51.488Z,45.10
2023-04-09T07:04:24.257Z,41.20
2023-04-09T07:06:55.453Z,41.40
2023-04-09T07:09:25.983Z,39.20
2023-04-09T07:11:56.433Z,38.00
2023-04-09T07:14:27.310Z,41.20
2023-04-09T07:16:57.788Z,41.90
2023-04-09T07:19:28.277Z,38.80
2023-04-09T07:21:58.844Z,40.30
2023-04-09T07:24:29.290Z,42.30
2023-04-09T07:26:59.809Z,40.60
2023-04-09T07:29:30.738Z,38.60
2023-04-09T07:32:01.413Z,39.80
2023-04-09T07:34:32.092Z,45.90
2023-04-09T07:37:03.020Z,42.80
2023-04-09T07:39:33.485Z,41.90
2023-04-09T07:42:06.582Z,43.10
2023-04-09T07:44:38.732Z,43.80
2023-04-09T07:49:39.844Z,36.70
2023-04-09T07:52:10.867Z,40.10
2023-04-09T07:54:41.628Z,40.90
2023-04-09T07:57:12.493Z,41.90
2023-04-09T07:59:43.196Z,35.20
2023-04-09T08:02:15.301Z,38.60
2023-04-09T08:04:46.204Z,41.40
2023-04-09T08:07:16.861Z,37.90
2023-04-09T08:09:47.310Z,55.40
2023-04-09T08:12:17.982Z,46.20
2023-04-09T08:14:48.770Z,42.90
2023-04-09T08:17:19.213Z,39.20
2023-04-09T08:19:50.235Z,42.20
2023-04-09T08:22:20.679Z,43.40
2023-04-09T08:24:54.997Z,43.70
2023-04-09T08:27:25.533Z,40.50
2023-04-09T08:29:56.057Z,42.60
2023-04-09T08:32:27.403Z,43.30
2023-04-09T08:34:57.948Z,35.90
2023-04-09T08:37:29.822Z,38.20
2023-04-09T08:40:00.407Z,39.20
2023-04-09T08:42:32.700Z,41.40
2023-04-09T08:45:06.953Z,44.20
2023-04-09T08:47:39.510Z,41.00
2023-04-09T08:50:11.755Z,38.80
2023-04-09T08:52:43.922Z,39.20
2023-04-09T08:55:14.653Z,40.20
2023-04-09T08:57:45.152Z,39.00
2023-04-09T09:00:17.121Z,37.90
2023-04-09T09:03:08.242Z,36.90
2023-04-09T09:05:42.909Z,38.60
2023-04-09T09:08:15.764Z,36.70
2023-04-09T09:10:47.731Z,35.70
2023-04-09T09:13:23.468Z,36.70
2023-04-09T09:15:56.507Z,34.50
2023-04-09T09:18:41.093Z,39.40
2023-04-09T09:21:16.526Z,34.80
2023-04-09T09:23:48.488Z,39.30
2023-04-09T09:26:20.658Z,36.10
2023-04-09T09:31:23.655Z,38.70
2023-04-09T09:33:54.344Z,38.90
2023-04-09T09:36:35.852Z,37.80
2023-04-09T09:39:10.375Z,36.80
2023-04-09T09:41:42.362Z,37.70
2023-04-09T09:44:14.192Z,35.50
2023-04-09T09:46:44.635Z,38.90
2023-04-09T09:49:15.142Z,36.80
2023-04-09T09:51:46.232Z,39.30
2023-04-09T09:54:23.277Z,40.70
2023-04-09T09:56:56.065Z,37.40
2023-04-09T09:59:35.760Z,37.00
2023-04-09T10:02:08.184Z,38.50
2023-04-09T10:04:39.655Z,39.30
2023-04-09T10:07:10.941Z,37.30
2023-04-09T10:09:47.018Z,33.30
2023-04-09T10:12:17.763Z,36.40
2023-04-09T10:14:49.112Z,36.60
2023-04-09T10:17:21.090Z,35.80
2023-04-09T10:19:58.046Z,34.60
2023-04-09T10:22:32.585Z,36.60
2023-04-09T10:25:03.989Z,37.90
2023-04-09T10:27:34.621Z,35.60
2023-04-09T10:30:10.412Z,34.90
2023-04-09T10:32:42.726Z,53.20
2023-04-09T10:35:13.209Z,45.20
2023-04-09T10:37:52.455Z,40.60
2023-04-09T10:40:23.720Z,36.60
2023-04-09T10:42:55.956Z,36.90
2023-04-09T10:45:28.733Z,36.00
2023-04-09T10:48:04.182Z,36.50
2023-04-09T10:50:36.559Z,38.50
2023-04-09T10:53:07.129Z,36.40
2023-04-09T10:55:39.901Z,35.90
2023-04-09T10:58:13.499Z,33.90
2023-04-09T11:00:45.841Z,31.60
2023-04-09T11:03:29.152Z,34.50
2023-04-09T11:06:02.689Z,36.80
2023-04-09T11:08:34.310Z,37.00
2023-04-09T11:11:05.961Z,37.00
2023-04-09T11:13:36.852Z,36.00
2023-04-09T11:16:08.428Z,33.10
2023-04-09T11:18:39.019Z,38.60
2023-04-09T11:21:10.479Z,37.70
2023-04-09T11:23:41.092Z,35.40
2023-04-09T11:26:13.669Z,36.60
2023-04-09T11:28:45.374Z,35.10
2023-04-09T11:31:16.661Z,37.10
2023-04-09T11:33:52.216Z,35.60
2023-04-09T11:36:24.087Z,38.40
2023-04-09T11:38:55.241Z,38.10
2023-04-09T11:41:36.723Z,37.20
2023-04-09T11:44:08.686Z,35.90
2023-04-09T11:46:40.141Z,32.40
2023-04-09T11:49:11.149Z,36.90
2023-04-09T11:51:41.675Z,33.20
2023-04-09T11:54:14.391Z,32.80
2023-04-09T11:56:44.868Z,37.40
2023-04-09T11:59:17.049Z,34.90
2023-04-09T12:04:24.077Z,36.10
2023-04-09T12:06:59.679Z,37.10
2023-04-09T12:09:30.163Z,34.90
2023-04-09T12:12:02.166Z,36.70
2023-04-09T12:14:33.892Z,36.60
2023-04-09T12:17:04.355Z,35.60
2023-04-09T12:19:37.567Z,35.90
2023-04-09T12:22:07.988Z,35.30
2023-04-09T12:24:38.662Z,36.60
2023-04-09T12:27:10.950Z,33.50
2023-04-09T12:29:41.778Z,37.80
2023-04-09T12:32:12.371Z,33.70
2023-04-09T12:34:43.448Z,35.90
2023-04-09T12:37:14.173Z,40.80
2023-04-09T12:39:44.613Z,37.80
2023-04-09T12:42:15.019Z,38.30
2023-04-09T12:44:45.500Z,39.10
2023-04-09T12:47:15.932Z,36.70
2023-04-09T12:49:46.841Z,41.00
2023-04-09T12:52:18.696Z,36.60
2023-04-09T12:54:49.232Z,39.40
2023-04-09T12:57:19.768Z,40.40
2023-04-09T12:59:50.500Z,37.50
2023-04-09T13:02:22.523Z,35.50
2023-04-09T13:07:25.779Z,39.60
2023-04-09T13:09:56.660Z,35.00
2023-04-09T13:12:27.334Z,37.30
2023-04-09T13:14:59.378Z,33.90
2023-04-09T13:17:29.895Z,35.90
2023-04-09T13:20:01.517Z,36.90
2023-04-09T13:22:32.239Z,37.60
2023-04-09T13:25:02.719Z,36.40
2023-04-09T13:27:33.402Z,38.40
2023-04-09T13:30:04.105Z,39.00
2023-04-09T13:32:34.679Z,38.70
2023-04-09T13:35:05.365Z,40.80
2023-04-09T13:37:35.838Z,40.90
2023-04-09T13:40:08.941Z,37.50
2023-04-09T13:42:39.449Z,39.90
2023-04-09T13:45:11.346Z,42.60
2023-04-09T13:47:43.146Z,35.50
2023-04-09T13:50:14.306Z,37.00
2023-04-09T13:52:44.777Z,39.10
2023-04-09T13:55:15.302Z,38.30
2023-04-09T13:57:45.735Z,36.40
2023-04-09T14:00:17.449Z,37.60
2023-04-09T14:02:48.052Z,37.90
2023-04-09T14:05:18.809Z,38.50
2023-04-09T14:07:49.335Z,38.40
2023-04-09T14:10:20.396Z,39.60
2023-04-09T14:12:50.809Z,39.00
2023-04-09T14:15:22.191Z,39.80
2023-04-09T14:17:52.626Z,36.10
2023-04-09T14:20:24.668Z,38.90
2023-04-09T14:22:55.143Z,34.90
2023-04-09T14:25:25.591Z,36.30
2023-04-09T14:27:56.940Z,36.70
2023-04-09T14:30:27.486Z,40.50
2023-04-09T14:32:57.995Z,40.30
2023-04-09T14:35:28.783Z,41.10
2023-04-09T14:37:59.338Z,39.60
2023-04-09T14:40:29.899Z,42.10
2023-04-09T14:43:01.166Z,41.30
2023-04-09T14:45:32.281Z,40.20
2023-04-09T14:48:02.884Z,39.60
2023-04-09T14:50:34.876Z,36.80
2023-04-09T14:53:05.417Z,53.40
2023-04-09T14:55:35.922Z,41.40
2023-04-09T14:58:08.260Z,40.40
2023-04-09T15:00:39.100Z,36.70
2023-04-09T15:03:09.814Z,42.00
2023-04-09T15:05:40.938Z,41.90
2023-04-09T15:08:11.396Z,43.90
2023-04-09T15:10:41.862Z,42.00
2023-04-09T15:13:12.435Z,40.80
2023-04-09T15:15:44.997Z,38.00
2023-04-09T15:18:15.472Z,38.00
2023-04-09T15:20:45.946Z,34.40
2023-04-09T15:23:16.502Z,40.90
2023-04-09T15:25:47.053Z,40.80
2023-04-09T15:28:17.553Z,38.90
2023-04-09T15:30:48.036Z,43.40
2023-04-09T15:33:18.513Z,39.60
2023-04-09T15:35:49.003Z,41.00
2023-04-09T15:38:21.619Z,39.80
2023-04-09T15:40:52.067Z,36.30
2023-04-09T15:43:23.288Z,37.90
2023-04-09T15:45:54.123Z,37.30
2023-04-09T15:48:24.762Z,37.50
2023-04-09T15:50:55.379Z,34.70
2023-04-09T15:53:29.006Z,44.40
2023-04-09T15:55:59.510Z,42.80
2023-04-09T15:58:30.375Z,44.30
2023-04-09T16:01:01.610Z,40.30
2023-04-09T16:03:37.632Z,37.10
2023-04-09T16:06:10.317Z,39.40
2023-04-09T16:08:41.017Z,42.40
2023-04-09T16:11:11.885Z,39.70
2023-04-09T16:13:42.346Z,41.80
2023-04-09T16:16:12.863Z,37.50
2023-04-09T16:18:43.370Z,40.90
2023-04-09T16:21:14.049Z,41.70
2023-04-09T16:23:44.577Z,40.20
2023-04-09T16:26:15.036Z,34.90
2023-04-09T16:28:45.498Z,34.30
2023-04-09T16:31:16.410Z,35.40
2023-04-09T16:33:46.928Z,39.10
2023-04-09T16:36:17.356Z,38.90
2023-04-09T16:38:47.962Z,38.70
2023-04-09T16:41:18.416Z,46.10
2023-04-09T16:43:51.189Z,42.00
2023-04-09T16:46:22.061Z,38.90
2023-04-09T16:48:52.815Z,46.20
2023-04-09T16:51:23.883Z,45.20
2023-04-09T16:53:54.369Z,43.30
2023-04-09T16:56:24.903Z,44.00
2023-04-09T16:58:55.709Z,41.50
2023-04-09T17:01:29.144Z,42.20
2023-04-09T17:04:00.897Z,39.60
2023-04-09T17:06:31.460Z,38.70
2023-04-09T17:09:03.750Z,41.10
2023-04-09T17:11:34.520Z,39.30
2023-04-09T17:14:05.052Z,39.30
2023-04-09T17:16:36.419Z,35.90
2023-04-09T17:19:07.006Z,38.40
2023-04-09T17:21:38.225Z,40.00
2023-04-09T17:24:09.245Z,41.40
2023-04-09T17:26:39.929Z,39.80
2023-04-09T17:29:10.509Z,43.60
2023-04-09T17:31:41.165Z,39.00
2023-04-09T17:34:11.999Z,37.30
2023-04-09T17:36:42.484Z,38.70
2023-04-09T17:39:13.067Z,41.30
2023-04-09T17:41:44.521Z,41.20
2023-04-09T17:44:14.933Z,38.20
2023-04-09T17:46:45.937Z,36.00
2023-04-09T17:49:16.833Z,36.10
2023-04-09T17:51:48.789Z,37.10
2023-04-09T17:54:19.318Z,37.30
2023-04-09T17:56:49.797Z,37.70
2023-04-09T17:59:20.791Z,35.70
2023-04-09T18:01:52.902Z,38.60
2023-04-09T18:04:25.342Z,38.00
2023-04-09T18:06:57.048Z,38.40
2023-04-09T18:09:27.592Z,34.90
2023-04-09T18:11:59.300Z,33.20
2023-04-09T18:14:32.546Z,40.20
2023-04-09T18:17:03.395Z,40.40
2023-04-09T18:19:33.874Z,35.70
2023-04-09T18:22:04.461Z,37.20
2023-04-09T18:24:35.121Z,37.40
2023-04-09T18:27:05.723Z,35.70
2023-04-09T18:29:36.462Z,35.90
2023-04-09T18:32:07.910Z,39.60
2023-04-09T18:34:38.355Z,35.80
2023-04-09T18:37:08.860Z,35.40
2023-04-09T18:39:39.348Z,38.70
2023-04-09T18:42:10.021Z,35.10
2023-04-09T18:44:41.037Z,36.90
2023-04-09T18:47:11.979Z,42.10
2023-04-09T18:49:42.475Z,40.10
2023-04-09T18:52:12.906Z,42.20
2023-04-09T18:54:43.434Z,38.20
2023-04-09T18:57:13.929Z,37.20
2023-04-09T18:59:48.206Z,38.80
2023-04-09T19:02:19.816Z,36.20
2023-04-09T19:04:50.597Z,42.10
2023-04-09T19:07:21.576Z,38.80
2023-04-09T19:09:52.215Z,40.10
2023-04-09T19:12:23.864Z,34.80
2023-04-09T19:14:54.376Z,36.00
2023-04-09T19:17:25.162Z,38.40
2023-04-09T19:19:56.077Z,40.50
2023-04-09T19:22:26.704Z,37.50
2023-04-09T19:24:57.120Z,37.00
2023-04-09T19:27:27.663Z,38.50
2023-04-09T19:30:01.084Z,39.90
2023-04-09T19:32:31.636Z,36.70
2023-04-09T19:35:02.203Z,37.90
2023-04-09T19:37:32.954Z,35.80
2023-04-09T19:40:04.733Z,37.10
2023-04-09T19:42:35.547Z,38.10
2023-04-09T19:45:06.942Z,37.10
2023-04-09T19:47:37.406Z,36.30
2023-04-09T19:50:09.452Z,37.50
2023-04-09T19:52:41.149Z,37.40
2023-04-09T19:55:12.748Z,38.20
2023-04-09T19:57:44.294Z,33.50
2023-04-09T20:00:16.433Z,39.10
2023-04-09T20:02:48.054Z,34.70
2023-04-09T20:05:21.067Z,34.00
2023-04-09T20:07:52.793Z,39.40
2023-04-09T20:10:23.401Z,34.70
2023-04-09T20:12:54.033Z,40.00
2023-04-09T20:15:24.984Z,38.30
2023-04-09T20:17:55.669Z,41.70
2023-04-09T20:20:26.223Z,40.50
2023-04-09T20:22:57.665Z,40.70
2023-04-09T20:25:34.019Z,43.00
2023-04-09T20:28:05.230Z,41.90
2023-04-09T20:30:35.796Z,37.90
2023-04-09T20:33:06.706Z,39.30
2023-04-09T20:35:37.853Z,37.30
2023-04-09T20:38:08.279Z,38.60
2023-04-09T20:40:39.341Z,41.50
2023-04-09T20:43:09.810Z,42.40
2023-04-09T20:45:40.684Z,53.80
2023-04-09T20:48:12.049Z,51.90
2023-04-09T20:50:42.722Z,43.70
2023-04-09T20:53:13.316Z,40.30
2023-04-09T20:55:43.848Z,41.30
2023-04-09T20:58:14.254Z,37.60
2023-04-09T21:00:44.688Z,37.70
2023-04-09T21:03:16.242Z,37.80
2023-04-09T21:05:46.815Z,36.40
2023-04-09T21:08:17.400Z,40.60
2023-04-09T21:10:47.968Z,41.80
2023-04-09T21:13:18.395Z,41.00
2023-04-09T21:15:49.521Z,50.30
2023-04-09T21:18:20.151Z,44.50
2023-04-09T21:20:51.193Z,44.30
2023-04-09T21:23:21.651Z,42.90
2023-04-09T21:25:52.078Z,40.50
2023-04-09T21:28:22.515Z,42.10
2023-04-09T21:30:52.967Z,43.80
2023-04-09T21:33:23.539Z,41.00
2023-04-09T21:35:55.957Z,43.60
2023-04-09T21:38:27.048Z,40.50
2023-04-09T21:40:57.494Z,41.60
2023-04-09T21:43:29.326Z,40.80
2023-04-09T21:46:00.323Z,39.90
2023-04-09T21:48:30.942Z,42.00
2023-04-09T21:51:01.593Z,40.90
2023-04-09T21:53:32.904Z,42.80
2023-04-09T21:56:04.926Z,60.80
2023-04-09T21:58:35.801Z,42.60
2023-04-09T22:01:13.100Z,44.60
2023-04-09T22:03:53.030Z,41.70
2023-04-09T22:06:23.677Z,43.90
2023-04-09T22:08:56.851Z,43.90
2023-04-09T22:11:29.016Z,43.40
2023-04-09T22:13:59.660Z,41.60
2023-04-09T22:16:30.178Z,42.10
2023-04-09T22:19:00.789Z,44.70
2023-04-09T22:21:31.683Z,42.10
2023-04-09T22:24:02.120Z,43.90
2023-04-09T22:26:33.411Z,39.70
2023-04-09T22:29:06.864Z,47.00
2023-04-09T22:31:37.602Z,42.90
2023-04-09T22:34:20.013Z,41.90
2023-04-09T22:36:51.864Z,45.30
2023-04-09T22:39:22.469Z,44.60
2023-04-09T22:41:53.406Z,45.30
2023-04-09T22:44:24.043Z,45.80
2023-04-09T22:46:54.496Z,49.20
2023-04-09T22:49:26.021Z,46.90
2023-04-09T22:51:57.169Z,45.40
2023-04-09T22:54:30.729Z,44.40
2023-04-09T22:57:01.293Z,41.20
2023-04-09T22:59:40.285Z,40.20
2023-04-09T23:02:11.640Z,45.10
2023-04-09T23:04:42.248Z,44.80
2023-04-09T23:07:13.073Z,41.20
2023-04-09T23:09:43.499Z,43.40
2023-04-09T23:12:13.940Z,45.60
2023-04-09T23:14:44.358Z,45.10
2023-04-09T23:17:15.881Z,38.60
2023-04-09T23:19:46.311Z,44.10
2023-04-09T23:22:16.776Z,48.40
2023-04-09T23:24:47.242Z,46.60
2023-04-09T23:27:17.685Z,44.70
2023-04-09T23:29:48.226Z,42.40
2023-04-09T23:32:18.691Z,45.60
2023-04-09T23:34:49.159Z,43.00
2023-04-09T23:37:19.917Z,46.90
2023-04-09T23:39:50.448Z,44.10
2023-04-09T23:42:21.214Z,45.30
2023-04-09T23:44:51.692Z,43.60
2023-04-09T23:47:22.257Z,44.10
2023-04-09T23:49:52.837Z,46.60
2023-04-09T23:52:23.259Z,44.80
2023-04-09T23:54:54.138Z,44.40
2023-04-09T23:57:24.561Z,41.80
2023-04-09T23:59:55.090Z,42.40
